createdAt,value
2019-03-10T00:00:11.954Z,61.40
2019-03-10T00:02:39.441Z,60.60
2019-03-10T00:05:06.908Z,60.50
2019-03-10T00:07:34.374Z,60.60
2019-03-10T00:10:01.927Z,60.50
2019-03-10T00:12:29.423Z,60.50
2019-03-10T00:14:56.902Z,60.60
2019-03-10T00:17:24.366Z,60.60
2019-03-10T00:19:51.859Z,60.60
2019-03-10T00:22:19.347Z,60.50
2019-03-10T00:24:46.814Z,60.30
2019-03-10T00:27:14.294Z,60.60
2019-03-10T00:29:41.773Z,60.60
2019-03-10T00:32:09.234Z,60.50
2019-03-10T00:34:36.710Z,60.50
2019-03-10T00:37:04.183Z,60.50
2019-03-10T00:39:41.985Z,60.40
2019-03-10T00:42:11.111Z,60.40
2019-03-10T00:44:56.814Z,60.40
2019-03-10T00:47:34.809Z,60.50
2019-03-10T00:50:03.913Z,60.60
2019-03-10T00:52:35.718Z,60.60
2019-03-10T00:55:03.193Z,60.70
2019-03-10T00:57:30.658Z,60.70
2019-03-10T01:00:00.403Z,60.70
2019-03-10T01:02:27.324Z,60.60
2019-03-10T01:04:54.798Z,60.70
2019-03-10T01:07:22.281Z,60.60
2019-03-10T01:09:49.766Z,60.60
2019-03-10T01:12:17.250Z,60.60
2019-03-10T01:14:44.722Z,60.50
2019-03-10T01:17:12.192Z,60.50
2019-03-10T01:19:39.660Z,60.50
2019-03-10T01:22:07.124Z,60.50
2019-03-10T01:24:34.594Z,60.50
2019-03-10T01:27:02.086Z,60.60
2019-03-10T01:29:29.554Z,60.50
2019-03-10T01:32:04.371Z,60.50
2019-03-10T01:34:33.473Z,60.60
2019-03-10T01:37:00.948Z,60.60
2019-03-10T01:39:28.430Z,60.60
2019-03-10T01:41:55.910Z,60.60
2019-03-10T01:44:23.367Z,60.60
2019-03-10T01:46:50.842Z,60.60
2019-03-10T01:49:18.313Z,60.40
2019-03-10T01:51:45.786Z,60.40
2019-03-10T01:54:13.302Z,60.30
2019-03-10T01:56:40.802Z,60.40
2019-03-10T01:59:08.276Z,60.40
2019-03-10T02:01:35.746Z,60.40
2019-03-10T02:04:03.223Z,60.40
2019-03-10T02:06:30.698Z,60.60
2019-03-10T02:08:58.157Z,60.50
2019-03-10T02:11:25.618Z,61.30
2019-03-10T02:13:53.081Z,60.40
2019-03-10T02:16:20.557Z,60.40
2019-03-10T02:18:48.037Z,60.40
2019-03-10T02:21:15.511Z,60.40
2019-03-10T02:23:42.977Z,60.40
2019-03-10T02:26:10.449Z,60.40
2019-03-10T02:28:37.940Z,60.30
2019-03-10T02:31:05.407Z,60.30
2019-03-10T02:33:32.885Z,60.30
2019-03-10T02:36:00.346Z,60.30
2019-03-10T02:38:27.809Z,60.30
2019-03-10T02:40:55.295Z,60.40
2019-03-10T02:43:22.764Z,60.30
2019-03-10T02:45:50.237Z,60.30
2019-03-10T02:48:17.699Z,60.30
2019-03-10T02:50:45.164Z,60.30
2019-03-10T02:53:12.653Z,60.30
2019-03-10T02:55:40.125Z,60.20
2019-03-10T02:58:07.858Z,60.10
2019-03-10T03:00:35.331Z,60.00
2019-03-10T03:03:02.810Z,60.10
2019-03-10T03:05:30.279Z,60.10
2019-03-10T03:07:57.753Z,60.00
2019-03-10T03:10:25.215Z,60.00
2019-03-10T03:12:52.678Z,60.00
2019-03-10T03:15:20.142Z,60.10
2019-03-10T03:17:47.632Z,60.10
2019-03-10T03:20:15.092Z,60.10
2019-03-10T03:22:42.553Z,60.10
2019-03-10T03:25:10.589Z,60.10
2019-03-10T03:27:38.058Z,60.00
2019-03-10T03:30:07.390Z,60.90
2019-03-10T03:32:34.868Z,60.10
2019-03-10T03:35:02.347Z,60.00
2019-03-10T03:37:29.816Z,60.00
2019-03-10T03:39:57.453Z,60.00
2019-03-10T03:42:24.927Z,60.00
2019-03-10T03:44:52.415Z,60.10
2019-03-10T03:47:19.888Z,60.20
2019-03-10T03:49:47.341Z,60.30
2019-03-10T03:52:14.812Z,60.20
2019-03-10T03:54:42.360Z,60.20
2019-03-10T03:57:09.835Z,60.20
2019-03-10T03:59:37.286Z,60.20
2019-03-10T04:02:06.411Z,60.20
2019-03-10T04:04:33.873Z,60.30
2019-03-10T04:07:01.353Z,60.20
2019-03-10T04:09:28.817Z,60.00
2019-03-10T04:11:56.305Z,60.00
2019-03-10T04:14:23.846Z,60.00
2019-03-10T04:16:51.309Z,60.00
2019-03-10T04:19:18.769Z,59.90
2019-03-10T04:21:46.245Z,59.80
2019-03-10T04:24:13.776Z,59.90
2019-03-10T04:26:41.252Z,59.80
2019-03-10T04:29:08.720Z,59.80
2019-03-10T04:31:36.262Z,59.80
2019-03-10T04:34:03.734Z,59.80
2019-03-10T04:36:31.187Z,59.70
2019-03-10T04:38:58.652Z,59.70
2019-03-10T04:41:26.121Z,59.70
2019-03-10T04:43:53.592Z,59.70
2019-03-10T04:46:21.058Z,59.80
2019-03-10T04:48:48.530Z,59.70
2019-03-10T04:51:15.990Z,59.70
2019-03-10T04:53:43.465Z,59.70
2019-03-10T04:56:21.838Z,59.70
2019-03-10T04:58:51.073Z,59.70
2019-03-10T05:01:18.929Z,59.70
2019-03-10T05:03:46.417Z,59.70
2019-03-10T05:06:13.885Z,59.60
2019-03-10T05:08:41.350Z,59.70
2019-03-10T05:11:08.816Z,59.60
2019-03-10T05:13:36.293Z,59.60
2019-03-10T05:16:03.771Z,59.50
2019-03-10T05:18:31.257Z,59.60
2019-03-10T05:20:58.717Z,59.40
2019-03-10T05:23:30.742Z,59.50
2019-03-10T05:25:58.377Z,59.50
2019-03-10T05:28:26.109Z,59.50
2019-03-10T05:30:53.599Z,59.40
2019-03-10T05:33:21.075Z,59.40
2019-03-10T05:35:48.543Z,59.40
2019-03-10T05:38:16.001Z,59.40
2019-03-10T05:40:43.481Z,59.30
2019-03-10T05:43:10.948Z,59.30
2019-03-10T05:45:38.413Z,59.30
2019-03-10T05:48:05.884Z,59.30
2019-03-10T05:50:33.349Z,59.30
2019-03-10T05:53:01.081Z,59.30
2019-03-10T05:55:28.558Z,59.30
2019-03-10T05:57:56.018Z,59.40
2019-03-10T06:00:23.491Z,59.40
2019-03-10T06:02:50.974Z,59.50
2019-03-10T06:05:18.439Z,59.50
2019-03-10T06:07:45.888Z,59.20
2019-03-10T06:10:13.369Z,59.20
2019-03-10T06:12:40.833Z,59.20
2019-03-10T06:15:08.881Z,59.80
2019-03-10T06:17:36.347Z,59.20
2019-03-10T06:20:05.456Z,59.20
2019-03-10T06:22:32.921Z,59.20
2019-03-10T06:25:00.388Z,59.20
2019-03-10T06:27:27.853Z,59.10
2019-03-10T06:29:55.317Z,59.10
2019-03-10T06:32:22.798Z,59.10
2019-03-10T06:34:50.256Z,59.20
2019-03-10T06:37:17.734Z,59.10
2019-03-10T06:39:45.201Z,59.10
2019-03-10T06:42:12.673Z,59.00
2019-03-10T06:44:40.124Z,59.00
2019-03-10T06:47:07.663Z,58.90
2019-03-10T06:49:35.131Z,58.90
2019-03-10T06:52:02.593Z,59.00
2019-03-10T06:54:30.058Z,59.00
2019-03-10T06:56:57.534Z,59.10
2019-03-10T06:59:24.998Z,59.10
2019-03-10T07:01:52.469Z,59.10
2019-03-10T07:04:19.940Z,59.00
2019-03-10T07:06:47.433Z,59.00
2019-03-10T07:09:14.905Z,58.90
2019-03-10T07:11:42.378Z,58.90
2019-03-10T07:14:09.842Z,58.90
2019-03-10T07:16:37.308Z,58.90
2019-03-10T07:19:04.785Z,59.40
2019-03-10T07:21:32.270Z,58.90
2019-03-10T07:23:59.808Z,58.90
2019-03-10T07:26:27.285Z,58.80
2019-03-10T07:28:59.384Z,58.80
2019-03-10T07:31:28.501Z,58.80
2019-03-10T07:34:00.312Z,58.80
2019-03-10T07:36:32.122Z,58.80
2019-03-10T07:39:03.993Z,58.80
2019-03-10T07:41:39.037Z,58.80
2019-03-10T07:44:24.708Z,58.80
2019-03-10T07:47:05.719Z,58.90
2019-03-10T07:49:43.735Z,59.00
2019-03-10T07:52:25.098Z,59.00
2019-03-10T07:54:54.201Z,59.10
2019-03-10T07:57:41.700Z,58.90
2019-03-10T08:00:11.269Z,58.80
2019-03-10T08:02:52.424Z,59.00
2019-03-10T08:05:37.897Z,59.10
2019-03-10T08:08:07.006Z,59.00
2019-03-10T08:10:36.130Z,58.90
2019-03-10T08:13:11.285Z,58.90
2019-03-10T08:15:40.561Z,59.00
2019-03-10T08:18:12.645Z,58.90
2019-03-10T08:21:00.352Z,58.90
2019-03-10T08:23:35.261Z,58.90
2019-03-10T08:26:04.373Z,58.90
2019-03-10T08:28:42.441Z,58.80
2019-03-10T08:31:17.483Z,58.90
2019-03-10T08:33:49.618Z,59.20
2019-03-10T08:36:18.747Z,58.70
2019-03-10T08:38:47.854Z,58.50
2019-03-10T08:41:28.897Z,58.50
2019-03-10T08:43:58.266Z,58.30
2019-03-10T08:46:33.438Z,58.20
2019-03-10T08:49:02.545Z,58.20
2019-03-10T08:51:31.658Z,58.00
2019-03-10T08:54:15.805Z,58.00
2019-03-10T08:57:03.060Z,58.00
2019-03-10T08:59:32.514Z,58.00
2019-03-10T09:02:04.221Z,58.00
2019-03-10T09:04:39.326Z,57.90
2019-03-10T09:07:17.354Z,57.80
2019-03-10T09:10:03.009Z,57.70
2019-03-10T09:12:50.249Z,57.70
2019-03-10T09:15:19.365Z,57.60
2019-03-10T09:17:48.481Z,57.70
2019-03-10T09:20:17.673Z,57.70
2019-03-10T09:22:46.787Z,57.60
2019-03-10T09:25:15.915Z,57.60
2019-03-10T09:27:45.030Z,57.60
2019-03-10T09:30:14.155Z,57.50
2019-03-10T09:32:52.223Z,57.60
2019-03-10T09:35:24.355Z,57.50
2019-03-10T09:37:53.537Z,57.60
2019-03-10T09:40:40.685Z,57.40
2019-03-10T09:43:21.799Z,57.60
2019-03-10T09:45:50.926Z,57.60
2019-03-10T09:48:20.029Z,57.50
2019-03-10T09:51:04.161Z,57.50
2019-03-10T09:53:42.197Z,57.50
2019-03-10T09:56:14.427Z,58.00
2019-03-10T09:58:49.333Z,57.50
2019-03-10T10:01:33.481Z,57.40
2019-03-10T10:04:02.579Z,57.40
2019-03-10T10:06:34.439Z,57.40
2019-03-10T10:09:03.627Z,57.30
2019-03-10T10:11:39.033Z,57.30
2019-03-10T10:14:08.256Z,57.30
2019-03-10T10:16:40.076Z,57.30
2019-03-10T10:19:18.248Z,57.70
2019-03-10T10:22:05.194Z,57.40
2019-03-10T10:24:34.287Z,57.40
2019-03-10T10:27:20.092Z,57.40
2019-03-10T10:29:51.938Z,57.50
2019-03-10T10:32:29.173Z,57.40
2019-03-10T10:34:58.280Z,57.40
2019-03-10T10:37:30.086Z,58.00
2019-03-10T10:39:59.187Z,57.30
2019-03-10T10:42:43.370Z,57.30
2019-03-10T10:45:21.046Z,57.30
2019-03-10T10:47:50.151Z,57.40
2019-03-10T10:50:19.575Z,57.30
2019-03-10T10:52:54.688Z,57.30
2019-03-10T10:55:23.882Z,57.20
2019-03-10T10:57:52.985Z,57.90
2019-03-10T11:00:25.077Z,57.10
2019-03-10T11:03:00.262Z,57.10
2019-03-10T11:05:32.153Z,57.20
2019-03-10T11:08:10.519Z,57.10
2019-03-10T11:10:39.608Z,57.10
2019-03-10T11:13:24.818Z,57.20
2019-03-10T11:15:53.934Z,57.10
2019-03-10T11:18:39.654Z,57.30
2019-03-10T11:21:08.756Z,57.40
2019-03-10T11:23:40.290Z,57.40
2019-03-10T11:26:12.051Z,57.50
2019-03-10T11:28:56.269Z,57.40
2019-03-10T11:31:34.500Z,57.50
2019-03-10T11:34:09.519Z,57.50
2019-03-10T11:36:41.586Z,57.40
2019-03-10T11:39:13.875Z,57.60
2019-03-10T11:41:47.942Z,57.50
2019-03-10T11:44:22.409Z,57.50
2019-03-10T11:46:51.513Z,57.60
2019-03-10T11:49:36.999Z,57.50
2019-03-10T11:52:06.105Z,57.50
2019-03-10T11:54:51.789Z,57.50
2019-03-10T11:57:23.887Z,57.40
2019-03-10T11:59:58.897Z,57.50
2019-03-10T12:02:28.047Z,57.50
2019-03-10T12:05:06.152Z,57.40
2019-03-10T12:08:45.321Z,57.30
2019-03-10T12:11:12.881Z,57.40
2019-03-10T12:13:40.351Z,57.40
2019-03-10T12:16:07.809Z,57.30
2019-03-10T12:18:35.409Z,57.20
2019-03-10T12:21:02.892Z,57.30
2019-03-10T12:23:30.361Z,57.20
2019-03-10T12:25:57.853Z,57.20
2019-03-10T12:28:25.327Z,57.10
2019-03-10T12:30:52.848Z,57.10
2019-03-10T12:33:20.319Z,57.10
2019-03-10T12:35:47.804Z,57.10
2019-03-10T12:38:15.257Z,57.10
2019-03-10T12:40:42.731Z,57.20
2019-03-10T12:43:10.193Z,57.20
2019-03-10T12:45:37.678Z,57.10
2019-03-10T12:48:05.146Z,57.10
2019-03-10T12:50:32.624Z,57.10
2019-03-10T12:53:00.094Z,57.00
2019-03-10T12:55:27.615Z,57.10
2019-03-10T12:57:55.070Z,57.10
2019-03-10T13:00:22.545Z,57.20
2019-03-10T13:02:50.025Z,57.10
2019-03-10T13:05:17.499Z,57.10
2019-03-10T13:07:44.965Z,57.00
2019-03-10T13:10:12.860Z,56.90
2019-03-10T13:12:40.555Z,56.90
2019-03-10T13:15:11.674Z,56.80
2019-03-10T13:17:39.145Z,56.90
2019-03-10T13:20:08.090Z,57.10
2019-03-10T13:22:35.571Z,57.10
2019-03-10T13:25:03.968Z,57.00
2019-03-10T13:27:31.457Z,57.00
2019-03-10T13:30:01.454Z,57.00
2019-03-10T13:32:28.140Z,57.00
2019-03-10T13:34:55.589Z,57.10
2019-03-10T13:37:23.063Z,57.00
2019-03-10T13:39:50.545Z,57.10
2019-03-10T13:42:18.033Z,57.10
2019-03-10T13:44:45.497Z,57.10
2019-03-10T13:47:13.010Z,57.10
2019-03-10T13:49:40.474Z,57.20
2019-03-10T13:52:07.971Z,57.00
2019-03-10T13:54:35.444Z,57.10
2019-03-10T13:57:02.946Z,56.90
2019-03-10T13:59:30.405Z,56.30
2019-03-10T14:01:58.040Z,57.00
2019-03-10T14:04:25.545Z,57.20
2019-03-10T14:06:53.017Z,57.30
2019-03-10T14:09:21.405Z,57.30
2019-03-10T14:11:48.879Z,57.20
2019-03-10T14:14:16.356Z,57.20
2019-03-10T14:16:43.825Z,57.10
2019-03-10T14:19:11.293Z,56.90
2019-03-10T14:21:38.756Z,56.90
2019-03-10T14:24:06.266Z,56.90
2019-03-10T14:26:33.753Z,56.60
2019-03-10T14:29:01.297Z,56.50
2019-03-10T14:31:28.854Z,56.30
2019-03-10T14:33:57.206Z,56.30
2019-03-10T14:36:24.892Z,56.40
2019-03-10T14:38:52.377Z,56.40
2019-03-10T14:41:19.857Z,56.10
2019-03-10T14:43:47.625Z,56.00
2019-03-10T14:46:15.096Z,56.00
2019-03-10T14:48:42.565Z,55.90
2019-03-10T14:51:13.232Z,55.80
2019-03-10T14:53:40.714Z,56.00
2019-03-10T14:56:08.175Z,56.10
2019-03-10T14:58:35.654Z,56.20
2019-03-10T15:01:03.119Z,56.10
2019-03-10T15:03:30.634Z,56.10
2019-03-10T15:05:58.109Z,56.30
2019-03-10T15:08:25.573Z,56.30
2019-03-10T15:10:53.051Z,56.30
2019-03-10T15:13:20.526Z,56.30
2019-03-10T15:15:47.996Z,56.40
2019-03-10T15:18:15.740Z,56.40
2019-03-10T15:20:43.214Z,56.30
2019-03-10T15:23:10.694Z,56.40
2019-03-10T15:25:38.181Z,56.40
2019-03-10T15:28:05.673Z,56.40
2019-03-10T15:30:33.141Z,56.30
2019-03-10T15:33:00.627Z,56.30
2019-03-10T15:35:28.097Z,57.00
2019-03-10T15:37:55.722Z,56.40
2019-03-10T15:40:23.214Z,56.30
2019-03-10T15:42:50.661Z,56.30
2019-03-10T15:45:18.421Z,56.40
2019-03-10T15:47:45.915Z,56.30
2019-03-10T15:50:15.010Z,56.40
2019-03-10T15:52:42.474Z,56.40
2019-03-10T15:55:09.934Z,56.40
2019-03-10T15:57:37.410Z,56.40
2019-03-10T16:00:06.653Z,56.40
2019-03-10T16:02:34.156Z,56.30
2019-03-10T16:05:01.678Z,56.20
2019-03-10T16:07:29.141Z,56.10
2019-03-10T16:09:56.625Z,56.10
2019-03-10T16:12:24.097Z,56.00
2019-03-10T16:14:51.736Z,56.00
2019-03-10T16:17:19.236Z,56.00
2019-03-10T16:19:46.761Z,56.00
2019-03-10T16:22:14.367Z,56.00
2019-03-10T16:24:41.862Z,56.00
2019-03-10T16:27:09.341Z,56.00
2019-03-10T16:29:36.838Z,55.90
2019-03-10T16:32:04.415Z,55.80
2019-03-10T16:34:31.907Z,55.90
2019-03-10T16:36:59.373Z,55.80
2019-03-10T16:39:26.845Z,55.70
2019-03-10T16:41:54.330Z,55.80
2019-03-10T16:44:22.129Z,56.00
2019-03-10T16:46:49.607Z,55.90
2019-03-10T16:49:17.077Z,55.80
2019-03-10T16:51:44.562Z,55.70
2019-03-10T16:54:12.071Z,55.40
2019-03-10T16:56:39.588Z,55.70
2019-03-10T16:59:07.025Z,56.20
2019-03-10T17:01:34.512Z,55.60
2019-03-10T17:04:01.981Z,55.50
2019-03-10T17:06:29.450Z,55.50
2019-03-10T17:08:56.912Z,55.50
2019-03-10T17:11:24.734Z,55.50
2019-03-10T17:13:52.227Z,55.60
2019-03-10T17:16:20.036Z,55.70
2019-03-10T17:18:47.516Z,55.60
2019-03-10T17:21:14.992Z,55.50
2019-03-10T17:23:42.458Z,55.40
2019-03-10T17:26:09.943Z,55.40
2019-03-10T17:28:37.418Z,55.30
2019-03-10T17:31:04.881Z,55.30
2019-03-10T17:33:32.345Z,55.30
2019-03-10T17:35:59.826Z,55.50
2019-03-10T17:38:27.298Z,55.70
2019-03-10T17:40:54.779Z,55.70
2019-03-10T17:43:22.249Z,55.30
2019-03-10T17:45:49.715Z,55.60
2019-03-10T17:48:17.198Z,55.60
2019-03-10T17:50:44.696Z,55.50
2019-03-10T17:53:12.174Z,55.50
2019-03-10T17:55:39.649Z,55.40
2019-03-10T17:58:07.178Z,55.40
2019-03-10T18:00:35.909Z,56.00
2019-03-10T18:03:03.389Z,55.20
2019-03-10T18:05:30.863Z,55.10
2019-03-10T18:07:58.334Z,55.10
2019-03-10T18:10:25.795Z,55.10
2019-03-10T18:12:53.368Z,55.10
2019-03-10T18:15:21.093Z,55.20
2019-03-10T18:17:48.690Z,55.10
2019-03-10T18:20:17.969Z,55.20
2019-03-10T18:22:45.445Z,55.20
2019-03-10T18:25:13.692Z,55.20
2019-03-10T18:27:41.240Z,55.20
2019-03-10T18:30:10.358Z,55.30
2019-03-10T18:32:37.839Z,55.60
2019-03-10T18:35:06.110Z,55.60
2019-03-10T18:37:34.116Z,55.60
2019-03-10T18:40:01.753Z,55.50
2019-03-10T18:42:29.246Z,55.40
2019-03-10T18:44:56.728Z,55.40
2019-03-10T18:47:24.178Z,55.30
2019-03-10T18:49:51.661Z,55.20
2019-03-10T18:52:19.127Z,55.20
2019-03-10T18:54:46.593Z,55.00
2019-03-10T18:57:14.078Z,54.90
2019-03-10T18:59:41.561Z,54.80
2019-03-10T19:02:09.016Z,54.80
2019-03-10T19:04:39.669Z,54.80
2019-03-10T19:07:07.163Z,54.80
2019-03-10T19:09:34.737Z,54.70
2019-03-10T19:12:03.550Z,54.80
2019-03-10T19:14:31.024Z,54.80
2019-03-10T19:16:58.487Z,54.70
2019-03-10T19:19:26.047Z,54.90
2019-03-10T19:21:53.517Z,55.10
2019-03-10T19:24:21.013Z,55.40
2019-03-10T19:26:48.482Z,55.10
2019-03-10T19:29:16.025Z,55.20
2019-03-10T19:31:43.481Z,55.40
2019-03-10T19:34:11.034Z,55.40
2019-03-10T19:36:38.501Z,55.40
2019-03-10T19:39:05.992Z,55.30
2019-03-10T19:41:33.465Z,55.30
2019-03-10T19:44:00.944Z,55.30
2019-03-10T19:46:28.444Z,55.40
2019-03-10T19:48:55.913Z,55.40
2019-03-10T19:51:23.389Z,55.30
2019-03-10T19:53:50.877Z,55.30
2019-03-10T19:56:18.372Z,55.30
2019-03-10T19:58:46.096Z,55.20
2019-03-10T20:01:13.583Z,55.10
2019-03-10T20:03:41.129Z,55.20
2019-03-10T20:06:08.603Z,55.10
2019-03-10T20:08:36.066Z,55.20
2019-03-10T20:11:03.615Z,55.30
2019-03-10T20:13:31.082Z,55.10
2019-03-10T20:15:58.555Z,54.80
2019-03-10T20:18:26.019Z,54.80
2019-03-10T20:20:53.477Z,54.90
2019-03-10T20:23:20.946Z,54.80
2019-03-10T20:25:48.418Z,54.70
2019-03-10T20:28:15.877Z,54.70
2019-03-10T20:30:43.350Z,54.80
2019-03-10T20:33:10.810Z,55.00
2019-03-10T20:35:38.281Z,54.80
2019-03-10T20:38:05.747Z,54.80
2019-03-10T20:40:33.214Z,54.70
2019-03-10T20:43:00.773Z,54.80
2019-03-10T20:45:28.248Z,54.70
2019-03-10T20:47:56.832Z,54.80
2019-03-10T20:50:24.584Z,54.80
2019-03-10T20:52:52.044Z,55.10
2019-03-10T20:55:19.504Z,55.20
2019-03-10T20:57:46.984Z,55.30
2019-03-10T21:00:17.888Z,55.30
2019-03-10T21:02:45.357Z,55.40
2019-03-10T21:05:12.903Z,55.40
2019-03-10T21:07:40.377Z,55.40
2019-03-10T21:10:09.537Z,55.20
2019-03-10T21:12:41.791Z,55.10
2019-03-10T21:15:13.006Z,55.10
2019-03-10T21:17:40.478Z,54.90
2019-03-10T21:20:12.073Z,54.80
2019-03-10T21:22:39.541Z,54.70
2019-03-10T21:25:11.282Z,54.60
2019-03-10T21:27:38.758Z,54.40
2019-03-10T21:30:07.845Z,54.50
2019-03-10T21:32:35.340Z,54.40
2019-03-10T21:35:02.811Z,54.40
2019-03-10T21:37:30.293Z,54.40
2019-03-10T21:39:57.749Z,54.40
2019-03-10T21:42:25.227Z,54.40
2019-03-10T21:44:53.027Z,54.50
2019-03-10T21:47:20.550Z,54.70
2019-03-10T21:49:48.026Z,54.70
2019-03-10T21:52:15.499Z,54.80
2019-03-10T21:54:42.968Z,54.60
2019-03-10T21:57:10.441Z,54.40
2019-03-10T21:59:37.919Z,54.40
2019-03-10T22:02:05.395Z,54.30
2019-03-10T22:04:32.942Z,54.20
2019-03-10T22:07:00.385Z,54.10
2019-03-10T22:09:27.856Z,54.00
2019-03-10T22:11:55.331Z,54.00
2019-03-10T22:14:22.826Z,54.00
2019-03-10T22:16:50.284Z,54.00
2019-03-10T22:19:22.665Z,54.00
2019-03-10T22:21:47.194Z,53.90
2019-03-10T22:24:14.670Z,54.00
2019-03-10T22:26:42.134Z,53.90
2019-03-10T22:29:09.602Z,54.00
2019-03-10T22:31:37.074Z,54.00
2019-03-10T22:34:04.552Z,54.00
2019-03-10T22:36:32.014Z,53.90
2019-03-10T22:38:59.933Z,53.90
2019-03-10T22:41:27.401Z,53.70
2019-03-10T22:43:54.906Z,53.70
2019-03-10T22:46:22.369Z,53.60
2019-03-10T22:48:49.852Z,53.50
2019-03-10T22:51:17.341Z,53.50
2019-03-10T22:53:44.821Z,53.50
2019-03-10T22:56:12.291Z,53.50
2019-03-10T22:58:39.759Z,53.50
2019-03-10T23:01:07.284Z,53.60
2019-03-10T23:03:35.241Z,53.50
2019-03-10T23:06:02.716Z,53.70
2019-03-10T23:08:30.178Z,53.50
2019-03-10T23:10:57.662Z,53.50
2019-03-10T23:13:25.130Z,53.50
2019-03-10T23:15:52.640Z,53.70
2019-03-10T23:18:20.123Z,53.80
2019-03-10T23:20:47.572Z,53.80
2019-03-10T23:23:15.038Z,53.70
2019-03-10T23:25:42.536Z,53.50
2019-03-10T23:28:09.997Z,53.40
2019-03-10T23:30:37.525Z,53.20
2019-03-10T23:33:04.989Z,53.20
2019-03-10T23:35:32.641Z,53.20
2019-03-10T23:38:00.092Z,53.10
2019-03-10T23:40:27.580Z,53.10
2019-03-10T23:42:55.089Z,52.90
2019-03-10T23:45:22.591Z,53.00
2019-03-10T23:47:50.053Z,53.00
2019-03-10T23:50:17.889Z,52.90
2019-03-10T23:52:45.351Z,53.00
2019-03-10T23:55:13.101Z,52.90
2019-03-10T23:57:40.574Z,53.10
